sensor_id;sensor_type;location;lat;lon;timestamp;temperature;humidity
67893;DHT22;54688;52.376;16.744;2023-04-30T00:00:58;6.2;77.1
67893;DHT22;54688;52.376;16.744;2023-04-30T00:04:07;6.2;77.4
67893;DHT22;54688;52.376;16.744;2023-04-30T00:07:09;6.1;77.6
67893;DHT22;54688;52.376;16.744;2023-04-30T00:10:12;6.1;77.4
67893;DHT22;54688;52.376;16.744;2023-04-30T00:13:14;6;77.9
67893;DHT22;54688;52.376;16.744;2023-04-30T00:16:16;5.9;78.4
67893;DHT22;54688;52.376;16.744;2023-04-30T00:19:18;5.9;78.2
67893;DHT22;54688;52.376;16.744;2023-04-30T00:22:20;5.8;78.2
67893;DHT22;54688;52.376;16.744;2023-04-30T00:25:22;5.8;77.9
67893;DHT22;54688;52.376;16.744;2023-04-30T00:28:25;5.8;78.4
67893;DHT22;54688;52.376;16.744;2023-04-30T00:31:26;5.8;78.3
67893;DHT22;54688;52.376;16.744;2023-04-30T00:34:28;5.7;78.2
67893;DHT22;54688;52.376;16.744;2023-04-30T00:37:30;5.7;78.4
67893;DHT22;54688;52.376;16.744;2023-04-30T00:40:33;5.7;78.5
67893;DHT22;54688;52.376;16.744;2023-04-30T00:43:35;5.7;78.4
67893;DHT22;54688;52.376;16.744;2023-04-30T00:46:37;5.6;78.6
67893;DHT22;54688;52.376;16.744;2023-04-30T00:49:39;5.6;78.5
67893;DHT22;54688;52.376;16.744;2023-04-30T00:52:40;5.6;78.5
67893;DHT22;54688;52.376;16.744;2023-04-30T00:55:43;5.5;78.5
67893;DHT22;54688;52.376;16.744;2023-04-30T00:58:45;5.5;78.6
67893;DHT22;54688;52.376;16.744;2023-04-30T01:01:48;5.5;78.3
67893;DHT22;54688;52.376;16.744;2023-04-30T01:04:50;5.5;78.1
67893;DHT22;54688;52.376;16.744;2023-04-30T01:07:53;5.5;78.2
67893;DHT22;54688;52.376;16.744;2023-04-30T01:10:59;5.4;78.2
67893;DHT22;54688;52.376;16.744;2023-04-30T01:14:11;5.4;78.1
67893;DHT22;54688;52.376;16.744;2023-04-30T01:17:20;5.4;78
67893;DHT22;54688;52.376;16.744;2023-04-30T01:20:28;5.4;78.1
67893;DHT22;54688;52.376;16.744;2023-04-30T01:23:37;5.3;78.3
67893;DHT22;54688;52.376;16.744;2023-04-30T01:26:52;5.3;78.2
67893;DHT22;54688;52.376;16.744;2023-04-30T01:30:08;5.2;78.1
67893;DHT22;54688;52.376;16.744;2023-04-30T01:33:11;5.2;78.2
67893;DHT22;54688;52.376;16.744;2023-04-30T01:36:24;5.1;78.1
67893;DHT22;54688;52.376;16.744;2023-04-30T01:39:38;5.1;78.4
67893;DHT22;54688;52.376;16.744;2023-04-30T01:42:52;5;78.3
67893;DHT22;54688;52.376;16.744;2023-04-30T01:46:05;5;78.9
67893;DHT22;54688;52.376;16.744;2023-04-30T01:49:14;5;79.1
67893;DHT22;54688;52.376;16.744;2023-04-30T01:52:22;5;79.1
67893;DHT22;54688;52.376;16.744;2023-04-30T01:55:33;5;79.3
67893;DHT22;54688;52.376;16.744;2023-04-30T01:58:38;5;79
67893;DHT22;54688;52.376;16.744;2023-04-30T02:01:41;4.9;79.2
67893;DHT22;54688;52.376;16.744;2023-04-30T02:04:44;4.9;79.1
67893;DHT22;54688;52.376;16.744;2023-04-30T02:07:47;4.9;79.1
67893;DHT22;54688;52.376;16.744;2023-04-30T02:10:50;4.9;78.9
67893;DHT22;54688;52.376;16.744;2023-04-30T02:13:53;4.9;79.1
67893;DHT22;54688;52.376;16.744;2023-04-30T02:16:54;4.8;79.1
67893;DHT22;54688;52.376;16.744;2023-04-30T02:19:56;4.8;79.1
67893;DHT22;54688;52.376;16.744;2023-04-30T02:22:59;4.8;79
67893;DHT22;54688;52.376;16.744;2023-04-30T02:26:01;4.8;79
67893;DHT22;54688;52.376;16.744;2023-04-30T02:29:03;4.7;79.1
67893;DHT22;54688;52.376;16.744;2023-04-30T02:32:05;4.7;79.2
67893;DHT22;54688;52.376;16.744;2023-04-30T02:35:07;4.6;79.3
67893;DHT22;54688;52.376;16.744;2023-04-30T02:38:09;4.6;79.3
67893;DHT22;54688;52.376;16.744;2023-04-30T02:41:11;4.6;79.3
67893;DHT22;54688;52.376;16.744;2023-04-30T02:44:14;4.5;79.6
67893;DHT22;54688;52.376;16.744;2023-04-30T02:47:16;4.5;79.5
67893;DHT22;54688;52.376;16.744;2023-04-30T02:50:18;4.5;79.5
67893;DHT22;54688;52.376;16.744;2023-04-30T02:53:20;4.5;79.5
67893;DHT22;54688;52.376;16.744;2023-04-30T02:56:22;4.4;79.5
67893;DHT22;54688;52.376;16.744;2023-04-30T02:59:25;4.4;79.5
67893;DHT22;54688;52.376;16.744;2023-04-30T03:02:27;4.4;79.6
67893;DHT22;54688;52.376;16.744;2023-04-30T03:05:28;4.3;79.4
67893;DHT22;54688;52.376;16.744;2023-04-30T03:08:30;4.3;79.5
67893;DHT22;54688;52.376;16.744;2023-04-30T03:11:33;4.3;79.4
67893;DHT22;54688;52.376;16.744;2023-04-30T03:14:35;4.2;79.3
67893;DHT22;54688;52.376;16.744;2023-04-30T03:17:37;4.2;79.5
67893;DHT22;54688;52.376;16.744;2023-04-30T03:20:39;4.2;79.5
67893;DHT22;54688;52.376;16.744;2023-04-30T03:23:41;4.2;79.5
67893;DHT22;54688;52.376;16.744;2023-04-30T03:26:44;4.1;79.7
67893;DHT22;54688;52.376;16.744;2023-04-30T03:32:45;4.1;79.8
67893;DHT22;54688;52.376;16.744;2023-04-30T03:35:47;4;79.8
67893;DHT22;54688;52.376;16.744;2023-04-30T03:38:48;4;80
67893;DHT22;54688;52.376;16.744;2023-04-30T03:41:51;4;80
67893;DHT22;54688;52.376;16.744;2023-04-30T03:44:53;3.9;80.1
67893;DHT22;54688;52.376;16.744;2023-04-30T03:50:54;3.9;80.4
67893;DHT22;54688;52.376;16.744;2023-04-30T03:53:56;3.9;80.4
67893;DHT22;54688;52.376;16.744;2023-04-30T03:56:58;3.8;80.5
67893;DHT22;54688;52.376;16.744;2023-04-30T04:00:00;3.8;80.6
67893;DHT22;54688;52.376;16.744;2023-04-30T04:03:03;3.8;81.6
67893;DHT22;54688;52.376;16.744;2023-04-30T04:06:06;3.8;80.9
67893;DHT22;54688;52.376;16.744;2023-04-30T04:09:08;3.7;81
67893;DHT22;54688;52.376;16.744;2023-04-30T04:12:10;3.8;80.9
67893;DHT22;54688;52.376;16.744;2023-04-30T04:15:13;3.7;80.5
67893;DHT22;54688;52.376;16.744;2023-04-30T04:18:15;3.8;80.5
67893;DHT22;54688;52.376;16.744;2023-04-30T04:21:17;3.8;80.3
67893;DHT22;54688;52.376;16.744;2023-04-30T04:24:19;3.8;80.2
67893;DHT22;54688;52.376;16.744;2023-04-30T04:27:21;3.8;80
67893;DHT22;54688;52.376;16.744;2023-04-30T04:30:23;3.9;79.9
67893;DHT22;54688;52.376;16.744;2023-04-30T04:33:25;3.9;79.8
67893;DHT22;54688;52.376;16.744;2023-04-30T04:36:27;3.9;79.7
67893;DHT22;54688;52.376;16.744;2023-04-30T04:39:29;3.9;79.5
67893;DHT22;54688;52.376;16.744;2023-04-30T04:42:31;3.9;79.3
67893;DHT22;54688;52.376;16.744;2023-04-30T04:45:32;4;79.3
67893;DHT22;54688;52.376;16.744;2023-04-30T04:48:34;4;79.2
67893;DHT22;54688;52.376;16.744;2023-04-30T04:51:36;4;78.8
67893;DHT22;54688;52.376;16.744;2023-04-30T04:54:38;4.1;78.6
67893;DHT22;54688;52.376;16.744;2023-04-30T04:57:40;4.1;77.8
67893;DHT22;54688;52.376;16.744;2023-04-30T05:00:42;4.2;78.3
67893;DHT22;54688;52.376;16.744;2023-04-30T05:03:44;4.2;78
67893;DHT22;54688;52.376;16.744;2023-04-30T05:06:46;4.3;78
67893;DHT22;54688;52.376;16.744;2023-04-30T05:09:48;4.3;77.8
67893;DHT22;54688;52.376;16.744;2023-04-30T05:12:50;4.4;77.4
67893;DHT22;54688;52.376;16.744;2023-04-30T05:15:52;4.4;77.5
67893;DHT22;54688;52.376;16.744;2023-04-30T05:18:54;4.5;77.9
67893;DHT22;54688;52.376;16.744;2023-04-30T05:21:56;4.5;77.6
67893;DHT22;54688;52.376;16.744;2023-04-30T05:24:58;4.6;76.8
67893;DHT22;54688;52.376;16.744;2023-04-30T05:28:00;4.7;76.9
67893;DHT22;54688;52.376;16.744;2023-04-30T05:31:02;4.7;77.1
67893;DHT22;54688;52.376;16.744;2023-04-30T05:34:04;4.8;75.6
67893;DHT22;54688;52.376;16.744;2023-04-30T05:37:06;4.9;74.8
67893;DHT22;54688;52.376;16.744;2023-04-30T05:40:08;5;74.8
67893;DHT22;54688;52.376;16.744;2023-04-30T05:43:11;5;74.4
67893;DHT22;54688;52.376;16.744;2023-04-30T05:46:13;5.1;74.4
67893;DHT22;54688;52.376;16.744;2023-04-30T05:49:15;5.2;73.8
67893;DHT22;54688;52.376;16.744;2023-04-30T05:52:17;5.3;73.8
67893;DHT22;54688;52.376;16.744;2023-04-30T05:55:19;5.3;72.8
67893;DHT22;54688;52.376;16.744;2023-04-30T05:58:21;5.4;72.6
67893;DHT22;54688;52.376;16.744;2023-04-30T06:01:23;5.4;72.8
67893;DHT22;54688;52.376;16.744;2023-04-30T06:04:25;5.5;72.6
67893;DHT22;54688;52.376;16.744;2023-04-30T06:07:28;5.6;72.5
67893;DHT22;54688;52.376;16.744;2023-04-30T06:10:30;5.6;73.1
67893;DHT22;54688;52.376;16.744;2023-04-30T06:13:31;5.6;72.4
67893;DHT22;54688;52.376;16.744;2023-04-30T06:16:33;5.7;72.9
67893;DHT22;54688;52.376;16.744;2023-04-30T06:19:35;5.7;72.8
67893;DHT22;54688;52.376;16.744;2023-04-30T06:22:37;5.7;71.6
67893;DHT22;54688;52.376;16.744;2023-04-30T06:25:39;5.8;71.6
67893;DHT22;54688;52.376;16.744;2023-04-30T06:28:41;5.9;71.6
67893;DHT22;54688;52.376;16.744;2023-04-30T06:31:43;5.9;71.3
67893;DHT22;54688;52.376;16.744;2023-04-30T06:34:45;6;69.7
67893;DHT22;54688;52.376;16.744;2023-04-30T06:37:47;6;70
67893;DHT22;54688;52.376;16.744;2023-04-30T06:40:49;6.1;69.7
67893;DHT22;54688;52.376;16.744;2023-04-30T06:43:51;6.2;69.5
67893;DHT22;54688;52.376;16.744;2023-04-30T06:46:53;6.2;68.6
67893;DHT22;54688;52.376;16.744;2023-04-30T06:49:56;6.3;67.5
67893;DHT22;54688;52.376;16.744;2023-04-30T06:52:58;6.4;67.5
67893;DHT22;54688;52.376;16.744;2023-04-30T06:56:00;6.4;67.3
67893;DHT22;54688;52.376;16.744;2023-04-30T06:59:02;6.4;66.7
67893;DHT22;54688;52.376;16.744;2023-04-30T07:02:04;6.4;64.4
67893;DHT22;54688;52.376;16.744;2023-04-30T07:05:06;6.5;64.5
67893;DHT22;54688;52.376;16.744;2023-04-30T07:08:09;6.5;63.8
67893;DHT22;54688;52.376;16.744;2023-04-30T07:11:11;6.5;64.7
67893;DHT22;54688;52.376;16.744;2023-04-30T07:14:13;6.5;64.3
67893;DHT22;54688;52.376;16.744;2023-04-30T07:17:15;6.6;63.6
67893;DHT22;54688;52.376;16.744;2023-04-30T07:20:17;6.6;63.6
67893;DHT22;54688;52.376;16.744;2023-04-30T07:23:18;6.6;63.6
67893;DHT22;54688;52.376;16.744;2023-04-30T07:26:20;6.7;63.4
67893;DHT22;54688;52.376;16.744;2023-04-30T07:29:22;6.7;62.6
67893;DHT22;54688;52.376;16.744;2023-04-30T07:32:24;6.8;60.6
67893;DHT22;54688;52.376;16.744;2023-04-30T07:35:26;6.8;59.4
67893;DHT22;54688;52.376;16.744;2023-04-30T07:38:28;6.8;60.7
67893;DHT22;54688;52.376;16.744;2023-04-30T07:41:30;6.8;61.2
67893;DHT22;54688;52.376;16.744;2023-04-30T07:44:32;6.9;62.6
67893;DHT22;54688;52.376;16.744;2023-04-30T07:47:35;6.9;62.2
67893;DHT22;54688;52.376;16.744;2023-04-30T07:50:36;7;60.9
67893;DHT22;54688;52.376;16.744;2023-04-30T07:53:38;7.1;61.1
67893;DHT22;54688;52.376;16.744;2023-04-30T07:56:40;7.1;60.5
67893;DHT22;54688;52.376;16.744;2023-04-30T07:59:42;7.1;60.3
67893;DHT22;54688;52.376;16.744;2023-04-30T08:02:44;7.2;58.7
67893;DHT22;54688;52.376;16.744;2023-04-30T08:05:46;7.3;60
67893;DHT22;54688;52.376;16.744;2023-04-30T08:08:48;7.3;57.6
67893;DHT22;54688;52.376;16.744;2023-04-30T08:11:50;7.4;58.4
67893;DHT22;54688;52.376;16.744;2023-04-30T08:14:58;7.4;57.3
67893;DHT22;54688;52.376;16.744;2023-04-30T08:18:00;7.5;57.3
67893;DHT22;54688;52.376;16.744;2023-04-30T08:21:03;7.6;57.3
67893;DHT22;54688;52.376;16.744;2023-04-30T08:24:06;7.7;58.3
67893;DHT22;54688;52.376;16.744;2023-04-30T08:30:07;7.8;58
67893;DHT22;54688;52.376;16.744;2023-04-30T08:33:10;7.8;58.7
67893;DHT22;54688;52.376;16.744;2023-04-30T08:36:12;7.8;56
67893;DHT22;54688;52.376;16.744;2023-04-30T08:39:14;7.9;55.8
67893;DHT22;54688;52.376;16.744;2023-04-30T08:42:16;8;57.1
67893;DHT22;54688;52.376;16.744;2023-04-30T08:45:20;8.1;54.7
67893;DHT22;54688;52.376;16.744;2023-04-30T08:48:22;8.1;54.6
67893;DHT22;54688;52.376;16.744;2023-04-30T08:51:25;8.1;51.9
67893;DHT22;54688;52.376;16.744;2023-04-30T08:54:28;8.1;52.1
67893;DHT22;54688;52.376;16.744;2023-04-30T08:57:31;8.2;52.5
67893;DHT22;54688;52.376;16.744;2023-04-30T09:00:33;8.2;52.8
67893;DHT22;54688;52.376;16.744;2023-04-30T09:03:38;8.2;51.7
67893;DHT22;54688;52.376;16.744;2023-04-30T09:06:39;8.3;52.7
67893;DHT22;54688;52.376;16.744;2023-04-30T09:09:42;8.3;53.2
67893;DHT22;54688;52.376;16.744;2023-04-30T09:12:43;8.3;50.5
67893;DHT22;54688;52.376;16.744;2023-04-30T09:15:58;8.4;51.4
67893;DHT22;54688;52.376;16.744;2023-04-30T09:19:00;8.5;52.7
67893;DHT22;54688;52.376;16.744;2023-04-30T09:22:17;8.5;52.5
67893;DHT22;54688;52.376;16.744;2023-04-30T09:25:21;8.6;50.6
67893;DHT22;54688;52.376;16.744;2023-04-30T09:28:52;8.7;48.9
67893;DHT22;54688;52.376;16.744;2023-04-30T09:32:04;8.7;49.4
67893;DHT22;54688;52.376;16.744;2023-04-30T09:35:14;8.6;48.8
67893;DHT22;54688;52.376;16.744;2023-04-30T09:38:30;8.6;48.1
67893;DHT22;54688;52.376;16.744;2023-04-30T09:44:35;8.7;49
67893;DHT22;54688;52.376;16.744;2023-04-30T09:47:38;8.8;48.2
67893;DHT22;54688;52.376;16.744;2023-04-30T09:50:40;8.9;49.1
67893;DHT22;54688;52.376;16.744;2023-04-30T09:53:43;8.9;48.5
67893;DHT22;54688;52.376;16.744;2023-04-30T09:56:45;8.9;49
67893;DHT22;54688;52.376;16.744;2023-04-30T09:59:48;9;50
67893;DHT22;54688;52.376;16.744;2023-04-30T10:02:52;9.1;49.5
67893;DHT22;54688;52.376;16.744;2023-04-30T10:05:55;9.2;47.9
67893;DHT22;54688;52.376;16.744;2023-04-30T10:08:57;9.3;46.8
67893;DHT22;54688;52.376;16.744;2023-04-30T10:11:59;9.3;47.3
67893;DHT22;54688;52.376;16.744;2023-04-30T10:15:04;9.4;47.6
67893;DHT22;54688;52.376;16.744;2023-04-30T10:18:12;9.5;48.5
67893;DHT22;54688;52.376;16.744;2023-04-30T10:21:19;9.5;47.6
67893;DHT22;54688;52.376;16.744;2023-04-30T10:24:24;9.6;47.5
67893;DHT22;54688;52.376;16.744;2023-04-30T10:27:25;9.6;47.6
67893;DHT22;54688;52.376;16.744;2023-04-30T10:33:28;9.7;46.4
67893;DHT22;54688;52.376;16.744;2023-04-30T10:36:38;9.8;44.4
67893;DHT22;54688;52.376;16.744;2023-04-30T10:39:43;9.8;43.8
67893;DHT22;54688;52.376;16.744;2023-04-30T10:42:46;9.8;45.5
67893;DHT22;54688;52.376;16.744;2023-04-30T10:45:49;9.9;46.1
67893;DHT22;54688;52.376;16.744;2023-04-30T10:48:51;10;45.3
67893;DHT22;54688;52.376;16.744;2023-04-30T10:51:56;10;45.4
67893;DHT22;54688;52.376;16.744;2023-04-30T10:55:02;10;44.9
67893;DHT22;54688;52.376;16.744;2023-04-30T10:58:14;10;44
67893;DHT22;54688;52.376;16.744;2023-04-30T11:01:24;10.1;42.8
67893;DHT22;54688;52.376;16.744;2023-04-30T11:04:26;10.2;43.4
67893;DHT22;54688;52.376;16.744;2023-04-30T11:07:28;10.3;39.4
67893;DHT22;54688;52.376;16.744;2023-04-30T11:10:31;10.3;40.3
67893;DHT22;54688;52.376;16.744;2023-04-30T11:13:38;10.4;40.7
67893;DHT22;54688;52.376;16.744;2023-04-30T11:16:41;10.4;40.2
67893;DHT22;54688;52.376;16.744;2023-04-30T11:19:46;10.4;39
67893;DHT22;54688;52.376;16.744;2023-04-30T11:22:54;10.4;41.2
67893;DHT22;54688;52.376;16.744;2023-04-30T11:26:09;10.5;40.1
67893;DHT22;54688;52.376;16.744;2023-04-30T11:29:11;10.6;40
67893;DHT22;54688;52.376;16.744;2023-04-30T11:32:15;10.7;39
67893;DHT22;54688;52.376;16.744;2023-04-30T11:35:17;10.7;39.5
67893;DHT22;54688;52.376;16.744;2023-04-30T11:38:20;10.8;36.6
67893;DHT22;54688;52.376;16.744;2023-04-30T11:41:23;10.8;38.2
67893;DHT22;54688;52.376;16.744;2023-04-30T11:44:25;10.8;39
67893;DHT22;54688;52.376;16.744;2023-04-30T11:47:37;10.9;38.8
67893;DHT22;54688;52.376;16.744;2023-04-30T11:50:41;11;38.6
67893;DHT22;54688;52.376;16.744;2023-04-30T11:53:44;11.2;37.7
67893;DHT22;54688;52.376;16.744;2023-04-30T11:56:47;11.3;39.2
67893;DHT22;54688;52.376;16.744;2023-04-30T11:59:49;11.4;38.1
67893;DHT22;54688;52.376;16.744;2023-04-30T12:02:51;11.5;37.1
67893;DHT22;54688;52.376;16.744;2023-04-30T12:05:53;11.6;36.7
67893;DHT22;54688;52.376;16.744;2023-04-30T12:08:56;11.7;36.9
67893;DHT22;54688;52.376;16.744;2023-04-30T12:11:59;11.8;35.1
67893;DHT22;54688;52.376;16.744;2023-04-30T12:15:09;11.9;35
67893;DHT22;54688;52.376;16.744;2023-04-30T12:18:12;12;34.8
67893;DHT22;54688;52.376;16.744;2023-04-30T12:21:15;12.2;36.1
67893;DHT22;54688;52.376;16.744;2023-04-30T12:24:19;12.3;35.6
67893;DHT22;54688;52.376;16.744;2023-04-30T12:27:21;12.5;32.9
67893;DHT22;54688;52.376;16.744;2023-04-30T12:30:24;12.5;33.4
67893;DHT22;54688;52.376;16.744;2023-04-30T12:33:28;12.5;32.4
67893;DHT22;54688;52.376;16.744;2023-04-30T12:36:31;12.7;30.5
67893;DHT22;54688;52.376;16.744;2023-04-30T12:39:34;12.8;31.7
67893;DHT22;54688;52.376;16.744;2023-04-30T12:42:36;12.9;29.9
67893;DHT22;54688;52.376;16.744;2023-04-30T12:45:42;13;31.8
67893;DHT22;54688;52.376;16.744;2023-04-30T12:48:45;13.2;29.8
67893;DHT22;54688;52.376;16.744;2023-04-30T12:51:47;13.2;30.2
67893;DHT22;54688;52.376;16.744;2023-04-30T12:54:49;13.4;31.1
67893;DHT22;54688;52.376;16.744;2023-04-30T12:58:07;13.5;31.2
67893;DHT22;54688;52.376;16.744;2023-04-30T13:01:10;13.6;30.3
67893;DHT22;54688;52.376;16.744;2023-04-30T13:04:12;13.7;29.5
67893;DHT22;54688;52.376;16.744;2023-04-30T13:07:14;13.8;30.5
67893;DHT22;54688;52.376;16.744;2023-04-30T13:10:16;13.9;30.9
67893;DHT22;54688;52.376;16.744;2023-04-30T13:13:18;14;31.6
67893;DHT22;54688;52.376;16.744;2023-04-30T13:16:20;14.2;29.5
67893;DHT22;54688;52.376;16.744;2023-04-30T13:19:23;14.2;28.7
67893;DHT22;54688;52.376;16.744;2023-04-30T13:22:26;14.2;29.4
67893;DHT22;54688;52.376;16.744;2023-04-30T13:25:27;14.3;30.6
67893;DHT22;54688;52.376;16.744;2023-04-30T13:28:29;14.3;31.3
67893;DHT22;54688;52.376;16.744;2023-04-30T13:31:31;14.4;30.8
67893;DHT22;54688;52.376;16.744;2023-04-30T13:34:32;14.5;31.9
67893;DHT22;54688;52.376;16.744;2023-04-30T13:37:34;14.6;30
67893;DHT22;54688;52.376;16.744;2023-04-30T13:40:36;14.6;28.3
67893;DHT22;54688;52.376;16.744;2023-04-30T13:43:37;14.6;30.3
67893;DHT22;54688;52.376;16.744;2023-04-30T13:46:40;14.7;32.1
67893;DHT22;54688;52.376;16.744;2023-04-30T13:49:42;14.9;30.1
67893;DHT22;54688;52.376;16.744;2023-04-30T13:52:43;15;30.1
67893;DHT22;54688;52.376;16.744;2023-04-30T13:55:45;15.2;29.7
67893;DHT22;54688;52.376;16.744;2023-04-30T13:58:47;15.1;29.5
67893;DHT22;54688;52.376;16.744;2023-04-30T14:01:48;15;29.9
67893;DHT22;54688;52.376;16.744;2023-04-30T14:07:49;15.2;29.9
67893;DHT22;54688;52.376;16.744;2023-04-30T14:10:52;15.3;29.7
67893;DHT22;54688;52.376;16.744;2023-04-30T14:13:53;15.6;30.7
67893;DHT22;54688;52.376;16.744;2023-04-30T14:16:55;15.8;29.7
67893;DHT22;54688;52.376;16.744;2023-04-30T14:19:57;15.9;29.8
67893;DHT22;54688;52.376;16.744;2023-04-30T14:22:59;16;29.8
67893;DHT22;54688;52.376;16.744;2023-04-30T14:26:01;16.1;29.9
67893;DHT22;54688;52.376;16.744;2023-04-30T14:29:03;16.2;29.5
67893;DHT22;54688;52.376;16.744;2023-04-30T14:32:05;16.3;29.1
67893;DHT22;54688;52.376;16.744;2023-04-30T14:35:07;16.3;30
67893;DHT22;54688;52.376;16.744;2023-04-30T14:38:09;16.4;29
67893;DHT22;54688;52.376;16.744;2023-04-30T14:41:11;16.6;29.4
67893;DHT22;54688;52.376;16.744;2023-04-30T14:44:13;16.8;29.7
67893;DHT22;54688;52.376;16.744;2023-04-30T14:47:15;16.9;28.3
67893;DHT22;54688;52.376;16.744;2023-04-30T14:50:17;17;28.2
67893;DHT22;54688;52.376;16.744;2023-04-30T14:53:19;16.9;28.5
67893;DHT22;54688;52.376;16.744;2023-04-30T14:56:22;17.1;28
67893;DHT22;54688;52.376;16.744;2023-04-30T14:59:24;17.2;28.1
67893;DHT22;54688;52.376;16.744;2023-04-30T15:02:26;17.3;28.3
67893;DHT22;54688;52.376;16.744;2023-04-30T15:05:28;17.5;27.8
67893;DHT22;54688;52.376;16.744;2023-04-30T15:08:31;17.6;28.2
67893;DHT22;54688;52.376;16.744;2023-04-30T15:11:33;17.7;27.5
67893;DHT22;54688;52.376;16.744;2023-04-30T15:14:34;17.8;27.5
67893;DHT22;54688;52.376;16.744;2023-04-30T15:17:37;18;27.8
67893;DHT22;54688;52.376;16.744;2023-04-30T15:20:39;18.2;27.5
67893;DHT22;54688;52.376;16.744;2023-04-30T15:23:41;18.3;27.7
67893;DHT22;54688;52.376;16.744;2023-04-30T15:26:43;18.5;27.2
67893;DHT22;54688;52.376;16.744;2023-04-30T15:29:45;18.6;26.3
67893;DHT22;54688;52.376;16.744;2023-04-30T15:32:46;18.7;25.9
67893;DHT22;54688;52.376;16.744;2023-04-30T15:35:48;18.9;26.8
67893;DHT22;54688;52.376;16.744;2023-04-30T15:38:50;19;27
67893;DHT22;54688;52.376;16.744;2023-04-30T15:41:53;19.2;25.9
67893;DHT22;54688;52.376;16.744;2023-04-30T15:44:55;19.2;25.4
67893;DHT22;54688;52.376;16.744;2023-04-30T15:47:56;19.4;26.3
67893;DHT22;54688;52.376;16.744;2023-04-30T15:50:58;19.4;26.1
67893;DHT22;54688;52.376;16.744;2023-04-30T15:53:59;19.4;25.9
67893;DHT22;54688;52.376;16.744;2023-04-30T15:57:01;19.4;25.8
67893;DHT22;54688;52.376;16.744;2023-04-30T16:00:06;19.4;26.3
67893;DHT22;54688;52.376;16.744;2023-04-30T16:03:09;19.5;26.4
67893;DHT22;54688;52.376;16.744;2023-04-30T16:06:11;19.7;25.7
67893;DHT22;54688;52.376;16.744;2023-04-30T16:09:13;20;25.5
67893;DHT22;54688;52.376;16.744;2023-04-30T16:12:14;20.1;25.8
67893;DHT22;54688;52.376;16.744;2023-04-30T16:15:16;20.3;25.6
67893;DHT22;54688;52.376;16.744;2023-04-30T16:18:19;20.3;25.4
67893;DHT22;54688;52.376;16.744;2023-04-30T16:21:21;20.2;25.6
67893;DHT22;54688;52.376;16.744;2023-04-30T16:24:23;20.3;25.7
67893;DHT22;54688;52.376;16.744;2023-04-30T16:27:25;20.4;25.9
67893;DHT22;54688;52.376;16.744;2023-04-30T16:30:27;20.4;25.6
67893;DHT22;54688;52.376;16.744;2023-04-30T16:33:29;20.4;25.1
67893;DHT22;54688;52.376;16.744;2023-04-30T16:36:30;20.3;25.5
67893;DHT22;54688;52.376;16.744;2023-04-30T16:39:32;20.3;25.1
67893;DHT22;54688;52.376;16.744;2023-04-30T16:42:34;20.1;24.4
67893;DHT22;54688;52.376;16.744;2023-04-30T16:45:35;19.9;24.4
67893;DHT22;54688;52.376;16.744;2023-04-30T16:48:39;19.7;24.5
67893;DHT22;54688;52.376;16.744;2023-04-30T16:51:42;19.6;24.9
67893;DHT22;54688;52.376;16.744;2023-04-30T16:54:44;19.4;24.8
67893;DHT22;54688;52.376;16.744;2023-04-30T16:57:45;19.2;25.5
67893;DHT22;54688;52.376;16.744;2023-04-30T17:00:49;19.2;25.5
67893;DHT22;54688;52.376;16.744;2023-04-30T17:03:51;19;26.4
67893;DHT22;54688;52.376;16.744;2023-04-30T17:06:53;19;25.9
67893;DHT22;54688;52.376;16.744;2023-04-30T17:09:55;19;25.8
67893;DHT22;54688;52.376;16.744;2023-04-30T17:12:57;18.8;25.9
67893;DHT22;54688;52.376;16.744;2023-04-30T17:15:59;18.6;26.1
67893;DHT22;54688;52.376;16.744;2023-04-30T17:19:02;18.5;26.1
67893;DHT22;54688;52.376;16.744;2023-04-30T17:22:04;18.2;26
67893;DHT22;54688;52.376;16.744;2023-04-30T17:25:06;17.9;26
67893;DHT22;54688;52.376;16.744;2023-04-30T17:28:08;17.6;27.2
67893;DHT22;54688;52.376;16.744;2023-04-30T17:31:10;17.4;26.9
67893;DHT22;54688;52.376;16.744;2023-04-30T17:34:12;17;26.3
67893;DHT22;54688;52.376;16.744;2023-04-30T17:37:13;16.6;26.8
67893;DHT22;54688;52.376;16.744;2023-04-30T17:40:16;16.2;28.2
67893;DHT22;54688;52.376;16.744;2023-04-30T17:43:18;15.9;28.4
67893;DHT22;54688;52.376;16.744;2023-04-30T17:46:20;15.7;28.2
67893;DHT22;54688;52.376;16.744;2023-04-30T17:49:22;15.3;28.6
67893;DHT22;54688;52.376;16.744;2023-04-30T17:52:24;15.1;29.7
67893;DHT22;54688;52.376;16.744;2023-04-30T17:55:26;14.9;30
67893;DHT22;54688;52.376;16.744;2023-04-30T17:58:27;14.6;29.6
67893;DHT22;54688;52.376;16.744;2023-04-30T18:01:29;14.3;30
67893;DHT22;54688;52.376;16.744;2023-04-30T18:04:31;14;31.3
67893;DHT22;54688;52.376;16.744;2023-04-30T18:07:34;13.7;31.7
67893;DHT22;54688;52.376;16.744;2023-04-30T18:10:35;13.4;31.9
67893;DHT22;54688;52.376;16.744;2023-04-30T18:13:37;13.2;33.1
67893;DHT22;54688;52.376;16.744;2023-04-30T18:16:39;12.9;34.4
67893;DHT22;54688;52.376;16.744;2023-04-30T18:19:41;12.6;34.8
67893;DHT22;54688;52.376;16.744;2023-04-30T18:22:42;12.4;34.4
67893;DHT22;54688;52.376;16.744;2023-04-30T18:25:44;12.3;35
67893;DHT22;54688;52.376;16.744;2023-04-30T18:28:46;12;36.2
67893;DHT22;54688;52.376;16.744;2023-04-30T18:31:49;11.8;35.6
67893;DHT22;54688;52.376;16.744;2023-04-30T18:34:50;11.7;36.2
67893;DHT22;54688;52.376;16.744;2023-04-30T18:37:52;11.4;36.8
67893;DHT22;54688;52.376;16.744;2023-04-30T18:40:54;11.2;37.3
67893;DHT22;54688;52.376;16.744;2023-04-30T18:43:56;11;37.8
67893;DHT22;54688;52.376;16.744;2023-04-30T18:46:58;10.8;38.8
67893;DHT22;54688;52.376;16.744;2023-04-30T18:50:00;10.7;39.2
67893;DHT22;54688;52.376;16.744;2023-04-30T18:53:02;10.5;39.6
67893;DHT22;54688;52.376;16.744;2023-04-30T18:56:04;10.3;40.3
67893;DHT22;54688;52.376;16.744;2023-04-30T18:59:07;10.2;40.9
67893;DHT22;54688;52.376;16.744;2023-04-30T19:02:09;10;41.5
67893;DHT22;54688;52.376;16.744;2023-04-30T19:05:11;9.8;42.1
67893;DHT22;54688;52.376;16.744;2023-04-30T19:08:13;9.7;42.1
67893;DHT22;54688;52.376;16.744;2023-04-30T19:11:15;9.6;42.1
67893;DHT22;54688;52.376;16.744;2023-04-30T19:17:16;9.4;42.2
67893;DHT22;54688;52.376;16.744;2023-04-30T19:20:18;9.3;42.4
67893;DHT22;54688;52.376;16.744;2023-04-30T19:23:20;9.2;42.8
67893;DHT22;54688;52.376;16.744;2023-04-30T19:26:22;9.1;42.7
67893;DHT22;54688;52.376;16.744;2023-04-30T19:29:24;9;42.7
67893;DHT22;54688;52.376;16.744;2023-04-30T19:32:27;8.9;43.2
67893;DHT22;54688;52.376;16.744;2023-04-30T19:35:29;8.8;43.2
67893;DHT22;54688;52.376;16.744;2023-04-30T19:38:30;8.8;43.7
67893;DHT22;54688;52.376;16.744;2023-04-30T19:41:32;8.6;44.9
67893;DHT22;54688;52.376;16.744;2023-04-30T19:44:34;8.5;43.7
67893;DHT22;54688;52.376;16.744;2023-04-30T19:47:37;8.4;44.9
67893;DHT22;54688;52.376;16.744;2023-04-30T19:50:39;8.4;45.3
67893;DHT22;54688;52.376;16.744;2023-04-30T19:53:41;8.3;45.7
67893;DHT22;54688;52.376;16.744;2023-04-30T19:56:43;8.2;45.9
67893;DHT22;54688;52.376;16.744;2023-04-30T19:59:46;8.2;46.1
67893;DHT22;54688;52.376;16.744;2023-04-30T20:02:48;8.1;46.4
67893;DHT22;54688;52.376;16.744;2023-04-30T20:05:50;8.1;46.8
67893;DHT22;54688;52.376;16.744;2023-04-30T20:08:52;8;47.2
67893;DHT22;54688;52.376;16.744;2023-04-30T20:11:55;7.9;47.5
67893;DHT22;54688;52.376;16.744;2023-04-30T20:14:57;7.8;47.8